sensor_id;sensor_type;location;lat;lon;timestamp;pressure;altitude;pressure_sealevel;temperature;humidity
17950;BME280;9100;48.700;9.316;2023-04-25T00:00:25;97157.7;;;10.7;100
17950;BME280;9100;48.700;9.316;2023-04-25T00:01:25;97156.9;;;10.69;100
17950;BME280;9100;48.700;9.316;2023-04-25T00:02:25;97163;;;10.68;100
17950;BME280;9100;48.700;9.316;2023-04-25T00:03:25;97164.20000000001;;;10.66;100
17950;BME280;9100;48.700;9.316;2023-04-25T00:04:25;97171;;;10.65;100
17950;BME280;9100;48.700;9.316;2023-04-25T00:04:45;97161.8;;;10.64;100
17950;BME280;9100;48.700;9.316;2023-04-25T00:05:25;97160;;;10.65;100
17950;BME280;9100;48.700;9.316;2023-04-25T00:06:25;97160;;;10.65;100
17950;BME280;9100;48.700;9.316;2023-04-25T00:07:25;97160;;;10.65;100
17950;BME280;9100;48.700;9.316;2023-04-25T00:08:25;97145.6;;;10.57;100
17950;BME280;9100;48.700;9.316;2023-04-25T00:09:25;97156.5;;;10.66;100
17950;BME280;9100;48.700;9.316;2023-04-25T00:09:45;97160.2;;;10.63;100
17950;BME280;9100;48.700;9.316;2023-04-25T00:10:25;97159.1;;;10.66;100
17950;BME280;9100;48.700;9.316;2023-04-25T00:11:25;97158.3;;;10.65;100
17950;BME280;9100;48.700;9.316;2023-04-25T00:12:25;97157.3;;;10.66;100
17950;BME280;9100;48.700;9.316;2023-04-25T00:13:25;97164;;;10.67;100
17950;BME280;9100;48.700;9.316;2023-04-25T00:14:25;97158.1;;;10.67;100
17950;BME280;9100;48.700;9.316;2023-04-25T00:14:45;97161.40000000001;;;10.67;100
17950;BME280;9100;48.700;9.316;2023-04-25T00:15:25;97154.6;;;10.68;100
17950;BME280;9100;48.700;9.316;2023-04-25T00:16:25;97158.7;;;10.69;100
17950;BME280;9100;48.700;9.316;2023-04-25T00:17:25;97161;;;10.7;100
17950;BME280;9100;48.700;9.316;2023-04-25T00:18:25;97151.8;;;10.69;100
17950;BME280;9100;48.700;9.316;2023-04-25T00:19:25;97152.8;;;10.68;100
17950;BME280;9100;48.700;9.316;2023-04-25T00:19:45;97156.1;;;10.69;100
17950;BME280;9100;48.700;9.316;2023-04-25T00:20:25;97145.1;;;10.68;100
17950;BME280;9100;48.700;9.316;2023-04-25T00:21:25;97111.6;;;10.44;100
17950;BME280;9100;48.700;9.316;2023-04-25T00:22:25;97148.29999999999;;;10.7;100
17950;BME280;9100;48.700;9.316;2023-04-25T00:23:25;97151;;;10.69;100
17950;BME280;9100;48.700;9.316;2023-04-25T00:24:25;97152.20000000001;;;10.66;100
17950;BME280;9100;48.700;9.316;2023-04-25T00:24:45;97149.59999999999;;;10.66;100
17950;BME280;9100;48.700;9.316;2023-04-25T00:25:25;97145.5;;;10.65;100
17950;BME280;9100;48.700;9.316;2023-04-25T00:26:25;97139.59999999999;;;10.65;100
17950;BME280;9100;48.700;9.316;2023-04-25T00:27:25;97143.1;;;10.64;100
17950;BME280;9100;48.700;9.316;2023-04-25T00:28:25;97147.5;;;10.63;100
17950;BME280;9100;48.700;9.316;2023-04-25T00:29:25;97149.2;;;10.63;100
17950;BME280;9100;48.700;9.316;2023-04-25T00:29:45;97140.8;;;10.62;100
17950;BME280;9100;48.700;9.316;2023-04-25T00:30:25;97142.3;;;10.63;100
17950;BME280;9100;48.700;9.316;2023-04-25T00:31:25;97143.1;;;10.64;100
17950;BME280;9100;48.700;9.316;2023-04-25T00:32:25;97143.9;;;10.64;100
17950;BME280;9100;48.700;9.316;2023-04-25T00:33:25;97151.59999999999;;;10.64;100
17950;BME280;9100;48.700;9.316;2023-04-25T00:34:25;97148.2;;;10.64;100
17950;BME280;9100;48.700;9.316;2023-04-25T00:34:45;97151;;;10.62;100
17950;BME280;9100;48.700;9.316;2023-04-25T00:35:25;97152.59999999999;;;10.63;100
17950;BME280;9100;48.700;9.316;2023-04-25T00:36:25;97154.5;;;10.61;100
17950;BME280;9100;48.700;9.316;2023-04-25T00:37:25;97149.8;;;10.58;100
17950;BME280;9100;48.700;9.316;2023-04-25T00:38:25;97153.3;;;10.57;100
17950;BME280;9100;48.700;9.316;2023-04-25T00:39:25;97142.5;;;10.55;100
17950;BME280;9100;48.700;9.316;2023-04-25T00:39:45;97156.2;;;10.54;100
17950;BME280;9100;48.700;9.316;2023-04-25T00:40:25;97150.2;;;10.55;100
17950;BME280;9100;48.700;9.316;2023-04-25T00:41:26;97154.5;;;10.55;100
17950;BME280;9100;48.700;9.316;2023-04-25T00:42:25;97162;;;10.56;100
17950;BME280;9100;48.700;9.316;2023-04-25T00:43:25;97156.2;;;10.54;100
17950;BME280;9100;48.700;9.316;2023-04-25T00:44:25;97160.79999999999;;;10.52;100
17950;BME280;9100;48.700;9.316;2023-04-25T00:44:45;97155.7;;;10.52;100
17950;BME280;9100;48.700;9.316;2023-04-25T00:45:27;97154.1;;;10.51;100
17950;BME280;9100;48.700;9.316;2023-04-25T00:46:25;97147.40000000001;;;10.5;100
17950;BME280;9100;48.700;9.316;2023-04-25T00:47:25;97148.40000000001;;;10.49;100
17950;BME280;9100;48.700;9.316;2023-04-25T00:48:25;97147;;;10.47;100
17950;BME280;9100;48.700;9.316;2023-04-25T00:49:25;97137.90000000001;;;10.44;100
17950;BME280;9100;48.700;9.316;2023-04-25T00:49:45;97141.5;;;10.43;100
17950;BME280;9100;48.700;9.316;2023-04-25T00:50:25;97145.6;;;10.44;100
17950;BME280;9100;48.700;9.316;2023-04-25T00:51:25;97143;;;10.44;100
17950;BME280;9100;48.700;9.316;2023-04-25T00:52:25;97138.9;;;10.43;100
17950;BME280;9100;48.700;9.316;2023-04-25T00:53:26;97141.5;;;10.43;100
17950;BME280;9100;48.700;9.316;2023-04-25T00:54:25;97137.09999999999;;;10.44;100
17950;BME280;9100;48.700;9.316;2023-04-25T00:54:45;97140.5;;;10.44;100
17950;BME280;9100;48.700;9.316;2023-04-25T00:55:25;97121.8;;;10.44;100
17950;BME280;9100;48.700;9.316;2023-04-25T00:56:25;97135.2;;;10.46;100
17950;BME280;9100;48.700;9.316;2023-04-25T00:57:25;97131.6;;;10.47;100
17950;BME280;9100;48.700;9.316;2023-04-25T00:58:25;97133.4;;;10.46;100
17950;BME280;9100;48.700;9.316;2023-04-25T00:59:25;97134.40000000001;;;10.45;100
17950;BME280;9100;48.700;9.316;2023-04-25T00:59:45;97136.3;;;10.43;100
17950;BME280;9100;48.700;9.316;2023-04-25T01:00:25;97128.5;;;10.45;100
17950;BME280;9100;48.700;9.316;2023-04-25T01:01:25;97129.5;;;10.44;100
17950;BME280;9100;48.700;9.316;2023-04-25T01:02:25;97131.2;;;10.43;100
17950;BME280;9100;48.700;9.316;2023-04-25T01:03:25;97137.5;;;10.41;100
17950;BME280;9100;48.700;9.316;2023-04-25T01:04:25;97132.8;;;10.38;100
17950;BME280;9100;48.700;9.316;2023-04-25T01:04:45;97137.90000000001;;;10.38;100
17950;BME280;9100;48.700;9.316;2023-04-25T01:05:25;97133.6;;;10.38;100
17950;BME280;9100;48.700;9.316;2023-04-25T01:06:25;97133.4;;;10.4;100
17950;BME280;9100;48.700;9.316;2023-04-25T01:07:25;97126.5;;;10.4;100
17950;BME280;9100;48.700;9.316;2023-04-25T01:08:25;97131.6;;;10.4;100
17950;BME280;9100;48.700;9.316;2023-04-25T01:09:25;97120.6;;;10.4;100
17950;BME280;9100;48.700;9.316;2023-04-25T01:09:45;97125.7;;;10.4;100
17950;BME280;9100;48.700;9.316;2023-04-25T01:10:25;97122.40000000001;;;10.39;100
17950;BME280;9100;48.700;9.316;2023-04-25T01:11:25;97124.90000000001;;;10.39;100
17950;BME280;9100;48.700;9.316;2023-04-25T01:12:25;97121.40000000001;;;10.4;100
17950;BME280;9100;48.700;9.316;2023-04-25T01:13:25;97121.40000000001;;;10.4;100
17950;BME280;9100;48.700;9.316;2023-04-25T01:14:25;97118.3;;;10.38;100
17950;BME280;9100;48.700;9.316;2023-04-25T01:14:45;97123.2;;;10.4;100
17950;BME280;9100;48.700;9.316;2023-04-25T01:15:25;97125.7;;;10.4;100
17950;BME280;9100;48.700;9.316;2023-04-25T01:16:25;97128.09999999999;;;10.41;100
17950;BME280;9100;48.700;9.316;2023-04-25T01:17:25;97119.8;;;10.39;100
17950;BME280;9100;48.700;9.316;2023-04-25T01:18:25;97109.6;;;10.39;100
17950;BME280;9100;48.700;9.316;2023-04-25T01:19:25;97115.09999999999;;;10.36;100
17950;BME280;9100;48.700;9.316;2023-04-25T01:19:45;97110.79999999999;;;10.37;100
17950;BME280;9100;48.700;9.316;2023-04-25T01:20:25;97105.7;;;10.37;100
17950;BME280;9100;48.700;9.316;2023-04-25T01:21:25;97117.5;;;10.38;100
17950;BME280;9100;48.700;9.316;2023-04-25T01:22:25;97116.7;;;10.37;100
17950;BME280;9100;48.700;9.316;2023-04-25T01:23:25;97116.7;;;10.37;100
17950;BME280;9100;48.700;9.316;2023-04-25T01:24:25;97116.7;;;10.37;100
17950;BME280;9100;48.700;9.316;2023-04-25T01:24:45;97109.2;;;10.36;100
17950;BME280;9100;48.700;9.316;2023-04-25T01:25:25;97109;;;10.37;100
17950;BME280;9100;48.700;9.316;2023-04-25T01:26:25;97113.09999999999;;;10.38;100
17950;BME280;9100;48.700;9.316;2023-04-25T01:27:25;97106.2;;;10.39;100
17950;BME280;9100;48.700;9.316;2023-04-25T01:28:25;97099.7;;;10.3;100
17950;BME280;9100;48.700;9.316;2023-04-25T01:29:25;97104.9;;;10.36;100
17950;BME280;9100;48.700;9.316;2023-04-25T01:29:45;97101.3;;;10.37;100
17950;BME280;9100;48.700;9.316;2023-04-25T01:30:25;97108;;;10.38;100
17950;BME280;9100;48.700;9.316;2023-04-25T01:31:25;97109.2;;;10.36;100
17950;BME280;9100;48.700;9.316;2023-04-25T01:32:25;97099.2;;;10.34;100
17950;BME280;9100;48.700;9.316;2023-04-25T01:33:25;97097.6;;;10.33;100
17950;BME280;9100;48.700;9.316;2023-04-25T01:34:25;97100.9;;;10.34;100
17950;BME280;9100;48.700;9.316;2023-04-25T01:34:45;97101.09999999999;;;10.32;100
17950;BME280;9100;48.700;9.316;2023-04-25T01:35:25;97095;;;10.33;100
17950;BME280;9100;48.700;9.316;2023-04-25T01:36:25;97097.6;;;10.33;100
17950;BME280;9100;48.700;9.316;2023-04-25T01:37:25;97100;;;10.35;100
17950;BME280;9100;48.700;9.316;2023-04-25T01:38:25;97112;;;10.34;100
17950;BME280;9100;48.700;9.316;2023-04-25T01:39:25;97098.6;;;10.32;100
17950;BME280;9100;48.700;9.316;2023-04-25T01:39:45;97107.8;;;10.33;100
17950;BME280;9100;48.700;9.316;2023-04-25T01:40:25;97101.9;;;10.33;100
17950;BME280;9100;48.700;9.316;2023-04-25T01:41:25;97102.70000000001;;;10.33;100
17950;BME280;9100;48.700;9.316;2023-04-25T01:42:25;97105.2;;;10.33;100
17950;BME280;9100;48.700;9.316;2023-04-25T01:43:25;97105.2;;;10.33;100
17950;BME280;9100;48.700;9.316;2023-04-25T01:44:25;97097.6;;;10.33;100
17950;BME280;9100;48.700;9.316;2023-04-25T01:44:45;97098.6;;;10.32;100
17950;BME280;9100;48.700;9.316;2023-04-25T01:45:25;97104.3;;;10.34;100
17950;BME280;9100;48.700;9.316;2023-04-25T01:46:25;97105.1;;;10.35;100
17950;BME280;9100;48.700;9.316;2023-04-25T01:47:25;97104.9;;;10.36;100
17950;BME280;9100;48.700;9.316;2023-04-25T01:48:25;97105.7;;;10.37;100
17950;BME280;9100;48.700;9.316;2023-04-25T01:49:25;97112.40000000001;;;10.38;100
17950;BME280;9100;48.700;9.316;2023-04-25T01:49:45;97105.8;;;10.35;100
17950;BME280;9100;48.700;9.316;2023-04-25T01:50:25;97105.7;;;10.37;100
17950;BME280;9100;48.700;9.316;2023-04-25T01:51:25;97106.5;;;10.37;100
17950;BME280;9100;48.700;9.316;2023-04-25T01:52:25;97102.9;;;10.38;100
17950;BME280;9100;48.700;9.316;2023-04-25T01:53:25;97101.3;;;10.37;100
17950;BME280;9100;48.700;9.316;2023-04-25T01:54:25;97102.3;;;10.36;100
17950;BME280;9100;48.700;9.316;2023-04-25T01:54:45;97103.3;;;10.35;100
17950;BME280;9100;48.700;9.316;2023-04-25T01:55:25;97099.7;;;10.36;100
17950;BME280;9100;48.700;9.316;2023-04-25T01:56:27;97095.4;;;10.37;100
17950;BME280;9100;48.700;9.316;2023-04-25T01:57:25;97103.9;;;10.37;100
17950;BME280;9100;48.700;9.316;2023-04-25T01:58:25;97096.40000000001;;;10.36;100
17950;BME280;9100;48.700;9.316;2023-04-25T01:59:25;97103.3;;;10.35;100
17950;BME280;9100;48.700;9.316;2023-04-25T01:59:45;97096.6;;;10.34;100
17950;BME280;9100;48.700;9.316;2023-04-25T02:00:25;97098.2;;;10.35;100
17950;BME280;9100;48.700;9.316;2023-04-25T02:01:25;97106.5;;;10.37;100
17950;BME280;9100;48.700;9.316;2023-04-25T02:02:25;97100.5;;;10.37;100
17950;BME280;9100;48.700;9.316;2023-04-25T02:03:25;97098.8;;;10.37;100
17950;BME280;9100;48.700;9.316;2023-04-25T02:04:25;97100.7;;;10.35;100
17950;BME280;9100;48.700;9.316;2023-04-25T02:04:45;97094.8;;;10.35;100
17950;BME280;9100;48.700;9.316;2023-04-25T02:05:25;97099.2;;;10.34;100
17950;BME280;9100;48.700;9.316;2023-04-25T02:06:25;97100.09999999999;;;10.33;100
17950;BME280;9100;48.700;9.316;2023-04-25T02:07:25;97096.8;;;10.33;100
17950;BME280;9100;48.700;9.316;2023-04-25T02:08:25;97091.9;;;10.31;100
17950;BME280;9100;48.700;9.316;2023-04-25T02:09:25;97095.2;;;10.32;100
17950;BME280;9100;48.700;9.316;2023-04-25T02:09:45;97093.4;;;10.32;100
17950;BME280;9100;48.700;9.316;2023-04-25T02:10:25;97098.6;;;10.32;100
17950;BME280;9100;48.700;9.316;2023-04-25T02:11:25;97091.9;;;10.31;100
17950;BME280;9100;48.700;9.316;2023-04-25T02:12:25;97101.3;;;10.31;100
17950;BME280;9100;48.700;9.316;2023-04-25T02:13:25;97092.9;;;10.3;100
17950;BME280;9100;48.700;9.316;2023-04-25T02:14:25;97094.6;;;10.3;100
17950;BME280;9100;48.700;9.316;2023-04-25T02:14:45;97090.7;;;10.27;100
17950;BME280;9100;48.700;9.316;2023-04-25T02:15:25;97090.7;;;10.27;100
17950;BME280;9100;48.700;9.316;2023-04-25T02:16:25;97087.09999999999;;;10.28;100
17950;BME280;9100;48.700;9.316;2023-04-25T02:17:25;97093.2;;;10.27;100
17950;BME280;9100;48.700;9.316;2023-04-25T02:18:25;97088.09999999999;;;10.27;100
17950;BME280;9100;48.700;9.316;2023-04-25T02:19:25;97087.5;;;10.25;100
17950;BME280;9100;48.700;9.316;2023-04-25T02:19:45;97091.7;;;10.26;100
17950;BME280;9100;48.700;9.316;2023-04-25T02:20:25;97094.2;;;10.26;100
17950;BME280;9100;48.700;9.316;2023-04-25T02:21:25;97099.3;;;10.26;100
17950;BME280;9100;48.700;9.316;2023-04-25T02:22:25;97096.8;;;10.26;100
17950;BME280;9100;48.700;9.316;2023-04-25T02:23:25;97092.6;;;10.25;100
17950;BME280;9100;48.700;9.316;2023-04-25T02:24:25;97096.2;;;10.24;100
17950;BME280;9100;48.700;9.316;2023-04-25T02:24:45;97096.2;;;10.24;100
17950;BME280;9100;48.700;9.316;2023-04-25T02:25:25;97090.3;;;10.23;100
17950;BME280;9100;48.700;9.316;2023-04-25T02:26:25;97092;;;10.23;100
17950;BME280;9100;48.700;9.316;2023-04-25T02:27:25;97082.8;;;10.22;100
17950;BME280;9100;48.700;9.316;2023-04-25T02:28:25;97088.9;;;10.21;100
17950;BME280;9100;48.700;9.316;2023-04-25T02:29:25;97088.3;;;10.19;100
17950;BME280;9100;48.700;9.316;2023-04-25T02:29:45;97087.5;;;10.18;100
17950;BME280;9100;48.700;9.316;2023-04-25T02:30:25;97094.2;;;10.19;100
17950;BME280;9100;48.700;9.316;2023-04-25T02:31:25;97083.2;;;10.19;100
17950;BME280;9100;48.700;9.316;2023-04-25T02:32:25;97092.6;;;10.18;100
17950;BME280;9100;48.700;9.316;2023-04-25T02:33:25;97086.7;;;10.18;100
17950;BME280;9100;48.700;9.316;2023-04-25T02:34:25;97082.8;;;10.15;100
17950;BME280;9100;48.700;9.316;2023-04-25T02:34:45;97077.70000000001;;;10.15;100
17950;BME280;9100;48.700;9.316;2023-04-25T02:35:25;97079.2;;;10.16;100
17950;BME280;9100;48.700;9.316;2023-04-25T02:36:25;97085.29999999999;;;10.15;100
17950;BME280;9100;48.700;9.316;2023-04-25T02:37:25;97079.4;;;10.15;100
17950;BME280;9100;48.700;9.316;2023-04-25T02:38:25;97082;;;10.15;100
17950;BME280;9100;48.700;9.316;2023-04-25T02:39:25;97075.3;;;10.14;100
17950;BME280;9100;48.700;9.316;2023-04-25T02:39:45;97077.8;;;10.14;100
17950;BME280;9100;48.700;9.316;2023-04-25T02:40:25;97082.8;;;10.15;100
17950;BME280;9100;48.700;9.316;2023-04-25T02:41:25;97080;;;10.17;100
17950;BME280;9100;48.700;9.316;2023-04-25T02:42:25;97080;;;10.17;100
17950;BME280;9100;48.700;9.316;2023-04-25T02:43:25;97076.5;;;10.18;100
17950;BME280;9100;48.700;9.316;2023-04-25T02:44:25;97071.40000000001;;;10.18;100
17950;BME280;9100;48.700;9.316;2023-04-25T02:44:45;97073.90000000001;;;10.18;100
17950;BME280;9100;48.700;9.316;2023-04-25T02:45:25;97081.6;;;10.18;100
17950;BME280;9100;48.700;9.316;2023-04-25T02:46:25;97079.8;;;10.18;100
17950;BME280;9100;48.700;9.316;2023-04-25T02:47:25;97074.5;;;10.2;100
17950;BME280;9100;48.700;9.316;2023-04-25T02:48:25;97073.7;;;10.19;100
17950;BME280;9100;48.700;9.316;2023-04-25T02:49:25;97034.90000000001;;;9.9;100
17950;BME280;9100;48.700;9.316;2023-04-25T02:49:45;97075.5;;;10.19;100
17950;BME280;9100;48.700;9.316;2023-04-25T02:50:25;97074.7;;;10.18;100
17950;BME280;9100;48.700;9.316;2023-04-25T02:51:25;97076.5;;;10.18;100
17950;BME280;9100;48.700;9.316;2023-04-25T02:52:25;97074.90000000001;;;10.17;100
17950;BME280;9100;48.700;9.316;2023-04-25T02:53:25;97074.1;;;10.16;100
17950;BME280;9100;48.700;9.316;2023-04-25T02:54:25;97076.09999999999;;;10.14;100
17950;BME280;9100;48.700;9.316;2023-04-25T02:54:45;97070.1;;;10.14;100
17950;BME280;9100;48.700;9.316;2023-04-25T02:55:25;97077.8;;;10.14;100
17950;BME280;9100;48.700;9.316;2023-04-25T02:56:25;97072.1;;;10.12;100
17950;BME280;9100;48.700;9.316;2023-04-25T02:57:25;97072.1;;;10.12;100
17950;BME280;9100;48.700;9.316;2023-04-25T02:58:25;97071.3;;;10.11;100
17950;BME280;9100;48.700;9.316;2023-04-25T02:59:25;97047;;;9.81;100
17950;BME280;9100;48.700;9.316;2023-04-25T02:59:45;97076.8;;;10.08;100
17950;BME280;9100;48.700;9.316;2023-04-25T03:00:25;97072.5;;;10.09;100
17950;BME280;9100;48.700;9.316;2023-04-25T03:01:25;97084.3;;;10.1;100
17950;BME280;9100;48.700;9.316;2023-04-25T03:02:25;97081.1;;;10.08;100
17950;BME280;9100;48.700;9.316;2023-04-25T03:03:25;97077.59999999999;;;10.09;100
17950;BME280;9100;48.700;9.316;2023-04-25T03:04:25;97078;;;10.06;100
17950;BME280;9100;48.700;9.316;2023-04-25T03:04:45;97077.20000000001;;;10.05;100
17950;BME280;9100;48.700;9.316;2023-04-25T03:05:25;97078.7;;;10.06;100
17950;BME280;9100;48.700;9.316;2023-04-25T03:06:25;97084.7;;;10.07;100
17950;BME280;9100;48.700;9.316;2023-04-25T03:07:25;97080.5;;;10.06;100
17950;BME280;9100;48.700;9.316;2023-04-25T03:08:25;97067.7;;;10.06;100
17950;BME280;9100;48.700;9.316;2023-04-25T03:09:25;97079;;;10.05;100
17950;BME280;9100;48.700;9.316;2023-04-25T03:09:45;97071.3;;;10.05;100
17950;BME280;9100;48.700;9.316;2023-04-25T03:10:26;97072.90000000001;;;10.06;100
17950;BME280;9100;48.700;9.316;2023-04-25T03:11:25;97076;;;10.08;100
17950;BME280;9100;48.700;9.316;2023-04-25T03:12:25;97069.3;;;10.07;100
17950;BME280;9100;48.700;9.316;2023-04-25T03:13:25;97072.90000000001;;;10.06;100
17950;BME280;9100;48.700;9.316;2023-04-25T03:14:25;97063.8;;;10.03;100
17950;BME280;9100;48.700;9.316;2023-04-25T03:14:45;97068.7;;;10.05;100
17950;BME280;9100;48.700;9.316;2023-04-25T03:15:25;97066.2;;;10.05;100
17950;BME280;9100;48.700;9.316;2023-04-25T03:16:25;97068.1;;;10.03;100
17950;BME280;9100;48.700;9.316;2023-04-25T03:17:25;97067.2;;;10.04;100
17950;BME280;9100;48.700;9.316;2023-04-25T03:18:25;97062.40000000001;;;10.01;100
17950;BME280;9100;48.700;9.316;2023-04-25T03:19:25;97067.7;;;9.99;100
17950;BME280;9100;48.700;9.316;2023-04-25T03:19:45;97061.8;;;9.99;100
17950;BME280;9100;48.700;9.316;2023-04-25T03:20:25;97068.5;;;10;100
17950;BME280;9100;48.700;9.316;2023-04-25T03:21:25;97063.4;;;10;100
17950;BME280;9100;48.700;9.316;2023-04-25T03:22:25;97072;;;9.99;100
17950;BME280;9100;48.700;9.316;2023-04-25T03:23:25;97068.1;;;9.96;100
17950;BME280;9100;48.700;9.316;2023-04-25T03:24:25;97067.3;;;9.96;100
17950;BME280;9100;48.700;9.316;2023-04-25T03:24:45;97073.2;;;9.96;100
17950;BME280;9100;48.700;9.316;2023-04-25T03:25:25;97065.7;;;9.95;100
17950;BME280;9100;48.700;9.316;2023-04-25T03:26:25;97071;;;9.93;100
17950;BME280;9100;48.700;9.316;2023-04-25T03:27:25;97067.7;;;9.93;100
17950;BME280;9100;48.700;9.316;2023-04-25T03:28:25;97069.3;;;9.94;100
17950;BME280;9100;48.700;9.316;2023-04-25T03:29:25;97066.09999999999;;;9.92;100
17950;BME280;9100;48.700;9.316;2023-04-25T03:29:45;97069.6;;;9.91;100
17950;BME280;9100;48.700;9.316;2023-04-25T03:30:25;97063;;;9.9;100
17950;BME280;9100;48.700;9.316;2023-04-25T03:31:25;97072.79999999999;;;9.93;100
17950;BME280;9100;48.700;9.316;2023-04-25T03:32:25;97066.9;;;9.92;100
17950;BME280;9100;48.700;9.316;2023-04-25T03:33:25;97070.3;;;9.93;100
17950;BME280;9100;48.700;9.316;2023-04-25T03:34:25;97070.3;;;9.93;100
17950;BME280;9100;48.700;9.316;2023-04-25T03:34:45;97075.40000000001;;;9.93;100
17950;BME280;9100;48.700;9.316;2023-04-25T03:35:25;97064.3;;;9.92;100
17950;BME280;9100;48.700;9.316;2023-04-25T03:36:25;97067.7;;;9.93;100
17950;BME280;9100;48.700;9.316;2023-04-25T03:37:25;97076.9;;;9.94;100
17950;BME280;9100;48.700;9.316;2023-04-25T03:38:25;97073.6;;;9.93;100
17950;BME280;9100;48.700;9.316;2023-04-25T03:39:25;97069.3;;;9.94;100
17950;BME280;9100;48.700;9.316;2023-04-25T03:39:45;97070.3;;;9.93;100
17950;BME280;9100;48.700;9.316;2023-04-25T03:40:25;97074.40000000001;;;9.94;100
17950;BME280;9100;48.700;9.316;2023-04-25T03:41:25;97063.4;;;9.93;100
17950;BME280;9100;48.700;9.316;2023-04-25T03:42:26;97068.5;;;9.93;100
17950;BME280;9100;48.700;9.316;2023-04-25T03:43:25;97061.8;;;9.92;100
17950;BME280;9100;48.700;9.316;2023-04-25T03:44:25;97066.09999999999;;;9.92;100
17950;BME280;9100;48.700;9.316;2023-04-25T03:44:45;97055.3;;;9.9;100
17950;BME280;9100;48.700;9.316;2023-04-25T03:45:25;97066.09999999999;;;9.92;100
17950;BME280;9100;48.700;9.316;2023-04-25T03:46:25;97054.3;;;9.91;100
17950;BME280;9100;48.700;9.316;2023-04-25T03:47:25;97047.6;;;9.9;100
17950;BME280;9100;48.700;9.316;2023-04-25T03:48:25;97061.40000000001;;;9.89;100
17950;BME280;9100;48.700;9.316;2023-04-25T03:49:25;97058.8;;;9.89;100
17950;BME280;9100;48.700;9.316;2023-04-25T03:49:45;97061.40000000001;;;9.89;100
17950;BME280;9100;48.700;9.316;2023-04-25T03:50:25;97060.40000000001;;;9.9;100
17950;BME280;9100;48.700;9.316;2023-04-25T03:51:25;97047.6;;;9.9;100
17950;BME280;9100;48.700;9.316;2023-04-25T03:52:25;97061;;;9.92;100
17950;BME280;9100;48.700;9.316;2023-04-25T03:53:25;97056.9;;;9.91;100
17950;BME280;9100;48.700;9.316;2023-04-25T03:54:25;97059.40000000001;;;9.91;100
17950;BME280;9100;48.700;9.316;2023-04-25T03:54:45;97063.7;;;9.9;100
17950;BME280;9100;48.700;9.316;2023-04-25T03:55:25;97059.2;;;9.92;100
17950;BME280;9100;48.700;9.316;2023-04-25T03:56:25;97062.59999999999;;;9.93;100
17950;BME280;9100;48.700;9.316;2023-04-25T03:57:25;97058.6;;;9.9;100
17950;BME280;9100;48.700;9.316;2023-04-25T03:58:25;97059.6;;;9.89;100
17950;BME280;9100;48.700;9.316;2023-04-25T03:59:25;97067.3;;;9.89;100
17950;BME280;9100;48.700;9.316;2023-04-25T03:59:45;97061.40000000001;;;9.89;100
17950;BME280;9100;48.700;9.316;2023-04-25T04:00:25;97062.2;;;9.89;100
17950;BME280;9100;48.700;9.316;2023-04-25T04:01:25;97066.09999999999;;;9.92;100
17950;BME280;9100;48.700;9.316;2023-04-25T04:02:25;97063.5;;;9.92;100
17950;BME280;9100;48.700;9.316;2023-04-25T04:03:25;97063.7;;;9.9;100
17950;BME280;9100;48.700;9.316;2023-04-25T04:04:25;97057.9;;;9.9;100
17950;BME280;9100;48.700;9.316;2023-04-25T04:04:45;97056.9;;;9.91;100
17950;BME280;9100;48.700;9.316;2023-04-25T04:05:25;97060.40000000001;;;9.9;100
17950;BME280;9100;48.700;9.316;2023-04-25T04:06:25;97049.5;;;9.81;100
17950;BME280;9100;48.700;9.316;2023-04-25T04:07:25;97069.5;;;9.92;100
17950;BME280;9100;48.700;9.316;2023-04-25T04:08:25;97069.6;;;9.91;100
17950;BME280;9100;48.700;9.316;2023-04-25T04:09:25;97066.3;;;9.9;100
17950;BME280;9100;48.700;9.316;2023-04-25T04:09:45;97074.1;;;9.89;100
17950;BME280;9100;48.700;9.316;2023-04-25T04:10:25;97066.5;;;9.89;100
17950;BME280;9100;48.700;9.316;2023-04-25T04:11:25;97071.6;;;9.89;100
17950;BME280;9100;48.700;9.316;2023-04-25T04:12:25;97068.2;;;9.88;100
17950;BME280;9100;48.700;9.316;2023-04-25T04:13:25;97070;;;9.88;100
17950;BME280;9100;48.700;9.316;2023-04-25T04:14:25;97067;;;9.84;100
17950;BME280;9100;48.700;9.316;2023-04-25T04:14:45;97072.2;;;9.84;100
17950;BME280;9100;48.700;9.316;2023-04-25T04:15:25;97066.2;;;9.84;100
17950;BME280;9100;48.700;9.316;2023-04-25T04:16:25;97063.5;;;9.85;100
17950;BME280;9100;48.700;9.316;2023-04-25T04:17:25;97062.7;;;9.85;100
17950;BME280;9100;48.700;9.316;2023-04-25T04:18:25;97059.40000000001;;;9.84;100
17950;BME280;9100;48.700;9.316;2023-04-25T04:19:25;97061.1;;;9.84;100
17950;BME280;9100;48.700;9.316;2023-04-25T04:19:45;97067.2;;;9.83;100
17950;BME280;9100;48.700;9.316;2023-04-25T04:20:25;97068.8;;;9.84;100
17950;BME280;9100;48.700;9.316;2023-04-25T04:21:25;97070.6;;;9.83;100
17950;BME280;9100;48.700;9.316;2023-04-25T04:22:25;97064.70000000001;;;9.83;100
17950;BME280;9100;48.700;9.316;2023-04-25T04:23:25;97064.9;;;9.81;100
17950;BME280;9100;48.700;9.316;2023-04-25T04:24:25;97064.5;;;9.78;100
17950;BME280;9100;48.700;9.316;2023-04-25T04:24:45;97064.5;;;9.78;100
17950;BME280;9100;48.700;9.316;2023-04-25T04:25:25;97068;;;9.77;100
17950;BME280;9100;48.700;9.316;2023-04-25T04:26:25;97063.7;;;9.77;100
17950;BME280;9100;48.700;9.316;2023-04-25T04:27:25;97070.5;;;9.77;100
17950;BME280;9100;48.700;9.316;2023-04-25T04:28:25;97073.1;;;9.77;100
17950;BME280;9100;48.700;9.316;2023-04-25T04:29:25;97069.7;;;9.76;100
17950;BME280;9100;48.700;9.316;2023-04-25T04:29:45;97064.59999999999;;;9.76;100
17950;BME280;9100;48.700;9.316;2023-04-25T04:30:25;97063.7;;;9.77;100
17950;BME280;9100;48.700;9.316;2023-04-25T04:31:25;97064.5;;;9.78;100
17950;BME280;9100;48.700;9.316;2023-04-25T04:32:25;97068;;;9.77;100
17950;BME280;9100;48.700;9.316;2023-04-25T04:33:25;97072.29999999999;;;9.76;100
17950;BME280;9100;48.700;9.316;2023-04-25T04:34:25;97068.9;;;9.75;100
17950;BME280;9100;48.700;9.316;2023-04-25T04:34:45;97073.1;;;9.77;100